Time;durP1;ratioP1;P1;durP2;ratioP2;P2;SDS_P1;SDS_P2;PMS_P1;PMS_P2;Temp;Humidity;BMP_temperature;BMP_pressure;BME280_temperature;BME280_humidity;BME280_pressure;Samples;Min_cycle;Max_cycle;Signal;HPM_P1;HPM_P2
2022/01/14 00:00:18;;;;;;;4.23;2.70;;;14.90;94.90;;;;;;2004130;28;20177;-72
2022/01/14 00:01:17;;;;;;;4.17;3.10;;;14.90;95.10;;;;;;2004476;28;20173;-72
2022/01/14 00:02:15;;;;;;;4.47;2.87;;;14.90;96.90;;;;;;2005083;28;20260;-72
2022/01/14 00:03:14;;;;;;;5.10;3.50;;;14.90;95.90;;;;;;2004994;28;20204;-72
2022/01/14 00:04:13;;;;;;;7.20;3.40;;;14.90;95.20;;;;;;2005071;28;20173;-72
2022/01/14 00:05:12;;;;;;;6.57;2.63;;;14.90;96.20;;;;;;2005214;28;20216;-72
2022/01/14 00:06:10;;;;;;;7.30;3.53;;;14.90;95.20;;;;;;2005217;28;20596;-72
2022/01/14 00:07:09;;;;;;;15.90;3.80;;;14.90;96.30;;;;;;2005091;28;20196;-72
2022/01/14 00:08:07;;;;;;;7.00;3.97;;;15.00;96.30;;;;;;2005063;28;20173;-72
2022/01/14 00:09:09;;;;;;;7.90;3.50;;;14.90;95.00;;;;;;2004480;28;20197;-72
2022/01/14 00:10:08;;;;;;;6.30;3.50;;;15.00;95.60;;;;;;2004621;28;20301;-72
2022/01/14 00:11:14;;;;;;;7.78;3.55;;;14.90;97.70;;;;;;2004353;28;20176;-71
2022/01/14 00:12:18;;;;;;;4.65;3.00;;;14.90;94.60;;;;;;2004477;28;20173;-72
2022/01/14 00:15:36;;;;;;;4.70;3.35;;;14.90;94.50;;;;;;2005041;28;20161;-72
2022/01/14 00:16:35;;;;;;;9.60;3.60;;;14.90;94.60;;;;;;2005010;28;20193;-72
2022/01/14 00:17:33;;;;;;;6.85;3.55;;;14.90;95.70;;;;;;2005163;28;20173;-72
2022/01/14 00:18:32;;;;;;;9.20;3.83;;;14.90;94.70;;;;;;2005046;28;20181;-71
2022/01/14 00:19:31;;;;;;;5.50;3.60;;;14.90;95.70;;;;;;2005009;28;20177;-70
2022/01/14 00:20:29;;;;;;;5.77;3.17;;;14.90;95.60;;;;;;2004966;28;20192;-70
2022/01/14 00:21:29;;;;;;;5.47;3.73;;;14.90;96.20;;;;;;2005146;28;20184;-70
2022/01/14 00:22:29;;;;;;;5.70;3.70;;;14.90;94.20;;;;;;2005001;28;20332;-71
2022/01/14 00:23:32;;;;;;;5.75;3.35;;;14.90;94.00;;;;;;2005106;28;20181;-70
2022/01/14 00:31:38;;;;;;;6.07;4.10;;;14.90;94.10;;;;;;2005112;28;20449;-71
2022/01/14 00:32:21;;;;;;;7.60;3.00;;;14.80;97.10;;;;;;2004958;28;20184;-70
2022/01/14 00:33:20;;;;;;;12.07;4.18;;;14.90;94.00;;;;;;2004906;28;20157;-71
2022/01/14 00:34:18;;;;;;;5.80;2.97;;;14.90;93.90;;;;;;2004950;28;20204;-70
2022/01/14 00:35:17;;;;;;;6.53;3.77;;;15.00;93.90;;;;;;2005052;28;20173;-70
2022/01/14 00:36:15;;;;;;;5.60;3.50;;;14.90;93.90;;;;;;2005258;28;20625;-70
2022/01/14 00:37:16;;;;;;;6.60;3.53;;;14.90;93.80;;;;;;2005462;28;20177;-70
2022/01/14 00:38:14;;;;;;;5.07;3.28;;;14.90;93.90;;;;;;2004931;28;20332;-70
2022/01/14 00:39:15;;;;;;;4.87;3.30;;;14.90;93.80;;;;;;2005296;28;20180;-70
2022/01/14 00:40:13;;;;;;;8.45;3.65;;;14.90;93.80;;;;;;2005203;28;20169;-70
2022/01/14 00:41:14;;;;;;;7.43;3.10;;;15.00;93.80;;;;;;2005210;28;20251;-70
2022/01/14 00:42:14;;;;;;;6.30;3.90;;;14.90;93.80;;;;;;2005248;28;20177;-72
2022/01/14 00:43:12;;;;;;;9.80;3.10;;;14.90;93.80;;;;;;2004966;28;20184;-70
2022/01/14 00:44:16;;;;;;;5.17;3.57;;;14.90;93.80;;;;;;2004850;28;20208;-70
2022/01/14 00:45:14;;;;;;;5.60;2.85;;;14.90;93.90;;;;;;2004969;28;20634;-70
2022/01/14 00:46:13;;;;;;;7.20;3.07;;;14.90;93.80;;;;;;2004806;28;20173;-70
2022/01/14 00:47:11;;;;;;;4.57;3.10;;;14.90;93.80;;;;;;2004803;28;20184;-70
2022/01/14 00:48:12;;;;;;;6.77;3.30;;;15.00;93.90;;;;;;2004788;28;20173;-69
2022/01/14 00:49:11;;;;;;;5.18;2.85;;;14.90;93.90;;;;;;2004865;28;20197;-70
2022/01/14 00:50:13;;;;;;;4.75;2.90;;;14.90;93.90;;;;;;2004622;28;20184;-71
2022/01/14 00:51:12;;;;;;;9.05;2.88;;;14.90;93.90;;;;;;2004786;28;20526;-71
2022/01/14 00:52:10;;;;;;;8.20;3.13;;;15.00;94.30;;;;;;2004123;28;20173;-71
2022/01/14 00:53:09;;;;;;;5.37;3.10;;;14.90;94.00;;;;;;2004374;28;20185;-71
2022/01/14 00:54:08;;;;;;;5.70;3.20;;;14.90;94.10;;;;;;2004883;28;20300;-71
2022/01/14 00:55:09;;;;;;;6.55;3.03;;;14.90;94.20;;;;;;2004607;28;20259;-70
2022/01/14 00:56:20;;;;;;;7.50;3.20;;;14.90;94.30;;;;;;2004667;28;20169;-71
2022/01/14 01:00:17;;;;;;;3.55;2.78;;;14.80;97.10;;;;;;1987974;28;20317;-70
2022/01/14 01:01:15;;;;;;;3.63;2.53;;;14.80;94.10;;;;;;2009874;28;20273;-70
2022/01/14 01:02:14;;;;;;;6.40;3.10;;;14.80;94.10;;;;;;2009395;28;20177;-71
2022/01/14 01:03:12;;;;;;;11.20;3.03;;;14.90;94.30;;;;;;2010344;28;20215;-69
2022/01/14 01:04:17;;;;;;;3.87;2.60;;;14.90;94.60;;;;;;2011816;28;20177;-70
2022/01/14 01:05:16;;;;;;;6.88;3.80;;;14.90;95.00;;;;;;2011915;28;20221;-71
2022/01/14 01:06:14;;;;;;;6.23;3.17;;;14.90;95.40;;;;;;2009372;28;20177;-70
2022/01/14 01:07:14;;;;;;;4.80;2.87;;;14.90;93.10;;;;;;2010652;28;20419;-70
2022/01/14 01:08:19;;;;;;;6.97;3.03;;;14.90;93.10;;;;;;2004432;28;20234;-69
2022/01/14 01:09:22;;;;;;;5.28;2.95;;;15.00;93.30;;;;;;2008147;28;20193;-71
2022/01/14 01:10:23;;;;;;;5.40;3.20;;;14.90;93.40;;;;;;2009781;28;20161;-71
2022/01/14 01:11:24;;;;;;;3.53;2.20;;;15.00;93.80;;;;;;2010980;28;20174;-71
2022/01/14 01:12:46;;;;;;;7.22;2.97;;;14.90;95.10;;;;;;2010903;28;20184;-70
2022/01/14 01:13:50;;;;;;;10.35;2.63;;;14.90;92.70;;;;;;2008865;28;20173;-71
2022/01/14 01:14:56;;;;;;;6.00;2.80;;;14.90;92.70;;;;;;2009488;28;20201;-71
2022/01/14 01:15:56;;;;;;;5.97;2.85;;;14.90;92.70;;;;;;2010358;28;20232;-71
2022/01/14 01:16:55;;;;;;;4.32;2.92;;;14.90;92.60;;;;;;2010123;28;20212;-70
2022/01/14 01:17:53;;;;;;;5.10;3.13;;;14.90;92.50;;;;;;2009773;28;20192;-71
2022/01/14 01:18:53;;;;;;;6.13;3.47;;;14.90;92.50;;;;;;2008856;28;20253;-70
2022/01/14 01:19:51;;;;;;;5.70;3.00;;;14.90;92.50;;;;;;2010082;28;20556;-70
2022/01/14 01:20:51;;;;;;;4.40;2.73;;;14.90;92.60;;;;;;2010848;28;20180;-70
2022/01/14 01:21:50;;;;;;;4.25;2.90;;;14.90;92.50;;;;;;2010362;28;20239;-69
2022/01/14 01:22:51;;;;;;;9.47;3.20;;;14.90;92.50;;;;;;2011156;28;20181;-70
2022/01/14 01:23:51;;;;;;;5.85;3.13;;;14.90;92.50;;;;;;2010923;28;20178;-70
2022/01/14 01:24:49;;;;;;;7.13;3.33;;;14.90;92.50;;;;;;2009984;28;20188;-70
2022/01/14 01:25:55;;;;;;;7.03;3.70;;;14.90;92.40;;;;;;2008415;28;20173;-71
2022/01/14 01:26:55;;;;;;;4.07;3.00;;;15.00;92.50;;;;;;2006913;28;20190;-71
2022/01/14 01:27:54;;;;;;;4.75;3.10;;;14.90;92.50;;;;;;2013509;28;20203;-71
2022/01/14 01:29:18;;;;;;;5.78;3.40;;;14.90;92.60;;;;;;2014007;28;20160;-71
2022/01/14 01:30:16;;;;;;;5.10;2.67;;;14.90;92.70;;;;;;2010469;28;20183;-70
2022/01/14 01:32:32;;;;;;;4.25;2.60;;;14.90;92.60;;;;;;2008626;28;20161;-71
2022/01/14 01:33:31;;;;;;;6.10;3.60;;;14.90;92.60;;;;;;2005325;28;20217;-70
2022/01/14 01:34:29;;;;;;;6.85;2.67;;;14.90;92.60;;;;;;2008279;28;20249;-71
2022/01/14 01:35:28;;;;;;;4.13;2.93;;;14.90;92.60;;;;;;2008630;28;20181;-71
2022/01/14 01:36:27;;;;;;;5.95;3.00;;;15.00;92.70;;;;;;2007903;28;20199;-70
2022/01/14 01:37:27;;;;;;;7.20;3.00;;;14.90;92.80;;;;;;2009037;28;20192;-70
2022/01/14 01:38:25;;;;;;;5.88;3.35;;;14.90;92.80;;;;;;2009819;28;20169;-69
2022/01/14 01:39:27;;;;;;;6.03;3.07;;;14.90;92.70;;;;;;2009442;28;20199;-70
2022/01/14 01:40:27;;;;;;;4.43;2.85;;;14.90;92.80;;;;;;2009425;28;20177;-70
2022/01/14 01:41:27;;;;;;;7.85;3.05;;;14.90;92.80;;;;;;2010003;28;20181;-69
2022/01/14 01:42:29;;;;;;;5.93;3.20;;;14.90;92.80;;;;;;2010189;28;20564;-70
2022/01/14 01:43:29;;;;;;;5.65;2.45;;;14.90;92.80;;;;;;2010173;28;20582;-70
2022/01/14 01:44:28;;;;;;;4.10;3.05;;;14.90;92.80;;;;;;2010517;28;20193;-69
2022/01/14 01:45:27;;;;;;;4.82;2.80;;;14.90;92.80;;;;;;2009908;28;20204;-69
2022/01/14 01:46:26;;;;;;;4.28;2.63;;;14.90;92.90;;;;;;2009976;28;20185;-70
2022/01/14 01:47:28;;;;;;;4.37;2.60;;;14.90;92.90;;;;;;2008824;28;20522;-70
2022/01/14 01:48:27;;;;;;;5.45;3.20;;;14.90;93.00;;;;;;2008516;28;20238;-70
2022/01/14 01:49:31;;;;;;;5.50;2.30;;;14.90;93.00;;;;;;2008591;28;20209;-70
2022/01/14 01:50:30;;;;;;;4.47;2.97;;;14.90;93.00;;;;;;2008959;28;20686;-70
2022/01/14 01:51:29;;;;;;;6.78;2.65;;;14.90;93.10;;;;;;2009426;28;20232;-70
2022/01/14 01:52:27;;;;;;;6.40;3.07;;;14.90;93.10;;;;;;2009998;28;20182;-71
2022/01/14 01:53:26;;;;;;;3.03;2.40;;;14.90;93.20;;;;;;2010104;28;20232;-70
2022/01/14 01:54:26;;;;;;;6.47;3.00;;;14.90;93.40;;;;;;2009344;28;20184;-70
2022/01/14 01:55:25;;;;;;;5.43;3.08;;;14.90;93.50;;;;;;2009466;28;20248;-70
2022/01/14 01:56:23;;;;;;;5.47;3.00;;;15.00;93.90;;;;;;2010390;28;20193;-69
2022/01/14 01:57:22;;;;;;;3.57;2.70;;;14.90;94.40;;;;;;2009424;28;20256;-71
2022/01/14 01:58:20;;;;;;;5.70;3.13;;;15.00;94.50;;;;;;2010477;28;20199;-70
2022/01/14 01:59:22;;;;;;;8.47;3.80;;;14.90;94.00;;;;;;2010544;28;20181;-70
2022/01/14 02:00:25;;;;;;;5.28;2.80;;;14.90;94.40;;;;;;2011102;28;20185;-70
2022/01/14 02:01:25;;;;;;;5.03;3.08;;;14.70;93.90;;;;;;2011329;28;20180;-70
2022/01/14 02:02:23;;;;;;;5.13;2.67;;;14.90;95.70;;;;;;2008785;28;20220;-69
2022/01/14 02:03:22;;;;;;;6.07;3.17;;;14.90;93.00;;;;;;2009811;28;20174;-69
2022/01/14 02:04:21;;;;;;;5.10;3.13;;;14.90;93.00;;;;;;2010131;28;20232;-69
2022/01/14 02:05:20;;;;;;;5.10;3.10;;;14.90;93.00;;;;;;2009164;28;20229;-70
2022/01/14 02:06:20;;;;;;;5.32;2.70;;;14.90;93.10;;;;;;2009826;28;20272;-70
2022/01/14 02:07:19;;;;;;;4.90;3.10;;;14.90;93.20;;;;;;2009611;28;20173;-69
2022/01/14 02:08:17;;;;;;;4.20;2.50;;;15.00;93.20;;;;;;2010126;28;20621;-71
2022/01/14 02:09:17;;;;;;;4.87;3.30;;;14.90;93.20;;;;;;2010205;28;20236;-70
2022/01/14 02:10:16;;;;;;;9.45;3.00;;;14.90;93.30;;;;;;2010313;28;20274;-70
2022/01/14 02:11:15;;;;;;;4.00;3.23;;;14.90;93.50;;;;;;2010514;28;20173;-70
2022/01/14 02:12:14;;;;;;;3.90;2.78;;;14.90;93.70;;;;;;2017891;28;20176;-69
2022/01/14 02:13:12;;;;;;;3.40;2.77;;;15.00;94.80;;;;;;2017733;28;20179;-70
2022/01/14 02:14:29;;;;;;;7.23;2.60;;;14.80;96.70;;;;;;2011021;28;20197;-69
2022/01/14 02:19:17;;;;;;;8.63;3.10;;;15.00;97.80;;;;;;2010814;28;20395;-69
2022/01/14 02:22:54;;;;;;;7.68;3.10;;;14.90;93.20;;;;;;2010810;28;20157;-69
2022/01/14 02:24:09;;;;;;;3.50;2.40;;;14.90;93.20;;;;;;2011099;28;20169;-69
2022/01/14 02:25:11;;;;;;;4.72;3.15;;;14.90;93.20;;;;;;2010931;28;20162;-69
2022/01/14 02:26:09;;;;;;;6.25;2.67;;;14.90;93.20;;;;;;2010600;28;20173;-70
2022/01/14 02:27:14;;;;;;;9.07;2.50;;;14.90;93.20;;;;;;2011486;28;20276;-70
2022/01/14 02:28:15;;;;;;;4.47;2.80;;;14.90;93.20;;;;;;2012659;28;20172;-70
2022/01/14 02:29:14;;;;;;;5.65;2.30;;;14.90;93.30;;;;;;2012183;28;20201;-69
2022/01/14 02:30:13;;;;;;;6.30;2.92;;;15.00;93.40;;;;;;2012251;28;20252;-70
2022/01/14 02:31:12;;;;;;;4.90;2.73;;;14.90;93.50;;;;;;2012465;28;20196;-70
2022/01/14 02:32:10;;;;;;;7.60;2.97;;;14.90;93.40;;;;;;2020522;28;20214;-70
2022/01/14 02:33:11;;;;;;;4.37;2.20;;;15.00;93.50;;;;;;2012666;28;20176;-70
2022/01/14 02:34:11;;;;;;;6.65;3.03;;;14.90;93.50;;;;;;2004440;28;20419;-71
2022/01/14 02:35:10;;;;;;;3.53;2.45;;;14.90;93.60;;;;;;2013895;28;20187;-69
2022/01/14 02:36:08;;;;;;;5.97;2.60;;;14.90;93.80;;;;;;2014062;28;20188;-69
2022/01/14 02:37:07;;;;;;;5.70;3.10;;;14.90;94.10;;;;;;2014165;28;20205;-69
2022/01/14 02:38:07;;;;;;;6.40;3.00;;;;;;;;;;2013932;28;20177;-69
2022/01/14 02:39:05;;;;;;;6.70;2.83;;;14.90;96.40;;;;;;2013974;28;20181;-68
2022/01/14 02:40:04;;;;;;;4.80;2.80;;;14.90;93.70;;;;;;2014326;28;20192;-69
2022/01/14 02:41:03;;;;;;;4.70;2.80;;;14.90;93.60;;;;;;2011134;28;20184;-69
2022/01/14 02:42:02;;;;;;;6.80;3.27;;;14.90;93.70;;;;;;2011536;28;20212;-69
2022/01/14 02:43:02;;;;;;;4.20;2.73;;;14.90;93.70;;;;;;2012112;28;20520;-70
2022/01/14 02:44:05;;;;;;;6.10;3.17;;;15.00;93.70;;;;;;2010766;28;20188;-70
2022/01/14 02:45:07;;;;;;;5.07;2.50;;;14.90;93.70;;;;;;2008506;28;20256;-70
2022/01/14 02:46:06;;;;;;;5.57;2.97;;;15.00;93.80;;;;;;2007625;28;20303;-70
2022/01/14 02:47:07;;;;;;;6.72;2.80;;;15.00;93.90;;;;;;2007770;28;20169;-70
2022/01/14 02:48:05;;;;;;;7.72;2.83;;;14.90;94.00;;;;;;2007906;28;20165;-70
2022/01/14 02:49:04;;;;;;;3.40;2.97;;;14.90;94.20;;;;;;2007397;28;20207;-70
2022/01/14 02:50:06;;;;;;;6.00;2.63;;;;;;;;;;2009413;28;20377;-70
2022/01/14 02:51:13;;;;;;;3.65;2.35;;;14.80;96.00;;;;;;2011745;28;20162;-70
2022/01/14 02:52:12;;;;;;;4.75;2.60;;;14.90;93.30;;;;;;2012126;28;20204;-70
2022/01/14 02:54:38;;;;;;;5.20;3.10;;;15.00;93.20;;;;;;2012350;28;20400;-70
2022/01/14 02:55:43;;;;;;;4.40;2.60;;;15.00;93.20;;;;;;2012061;28;20153;-71
2022/01/14 02:56:48;;;;;;;5.05;2.95;;;15.00;93.20;;;;;;2013219;28;20196;-70
2022/01/14 02:57:49;;;;;;;4.43;2.25;;;14.90;93.20;;;;;;2011817;28;20180;-70
2022/01/14 02:58:49;;;;;;;5.60;2.70;;;14.90;93.10;;;;;;2012590;28;20634;-71
2022/01/14 02:59:48;;;;;;;4.95;3.30;;;15.10;93.30;;;;;;2013194;28;20164;-70
2022/01/14 03:00:47;;;;;;;3.72;2.65;;;14.90;93.20;;;;;;2012841;28;20185;-71
2022/01/14 03:01:48;;;;;;;3.58;2.60;;;15.00;93.20;;;;;;2011051;28;20256;-71
2022/01/14 03:02:49;;;;;;;4.45;2.72;;;15.00;93.20;;;;;;2009765;28;20204;-70
2022/01/14 03:03:51;;;;;;;5.75;3.10;;;15.00;93.30;;;;;;2008408;28;20173;-71
2022/01/14 03:04:50;;;;;;;6.68;2.78;;;15.00;93.30;;;;;;2011425;28;20257;-70
2022/01/14 03:05:51;;;;;;;4.47;2.47;;;15.00;93.30;;;;;;2011593;28;20232;-70
2022/01/14 03:06:50;;;;;;;3.15;2.33;;;15.00;93.30;;;;;;2011923;28;20461;-70
2022/01/14 03:07:49;;;;;;;6.93;2.90;;;15.00;93.30;;;;;;2012226;28;20177;-71
2022/01/14 03:08:47;;;;;;;2.97;1.93;;;15.00;93.40;;;;;;2012159;28;20404;-71
2022/01/14 03:09:46;;;;;;;2.83;2.53;;;15.00;93.30;;;;;;2011076;28;20240;-70
2022/01/14 03:10:48;;;;;;;4.30;2.90;;;14.90;93.30;;;;;;2009820;28;20208;-72
2022/01/14 03:11:53;;;;;;;4.30;2.65;;;15.00;93.30;;;;;;2010259;28;20192;-70
2022/01/14 03:12:51;;;;;;;3.35;2.70;;;14.90;93.30;;;;;;2011334;28;20154;-71
2022/01/14 03:13:51;;;;;;;4.27;2.40;;;14.90;93.30;;;;;;2011756;28;20188;-70
2022/01/14 03:14:49;;;;;;;7.97;2.85;;;14.90;93.30;;;;;;2010981;28;20181;-70
2022/01/14 03:15:48;;;;;;;3.40;2.43;;;14.90;93.40;;;;;;2011379;28;20183;-70
2022/01/14 03:16:48;;;;;;;5.83;2.47;;;14.90;93.40;;;;;;2012796;28;20189;-70
2022/01/14 03:17:46;;;;;;;9.95;3.05;;;14.90;93.40;;;;;;2012070;28;20164;-71
2022/01/14 03:18:48;;;;;;;6.60;2.97;;;14.90;93.50;;;;;;2012081;28;20173;-70
2022/01/14 03:19:48;;;;;;;5.07;2.40;;;15.00;93.60;;;;;;2011821;28;20216;-71
2022/01/14 03:20:50;;;;;;;7.10;2.70;;;14.90;93.50;;;;;;2012461;28;20212;-70
2022/01/14 03:21:51;;;;;;;4.30;2.10;;;14.90;93.60;;;;;;2012416;28;20173;-71
2022/01/14 03:23:03;;;;;;;3.85;2.60;;;14.90;93.60;;;;;;2012478;28;20201;-71
2022/01/14 03:24:20;;;;;;;3.70;2.53;;;14.90;93.70;;;;;;2011973;28;20221;-71
2022/01/14 03:25:48;;;;;;;4.15;2.83;;;14.90;93.70;;;;;;2011419;28;20206;-71
2022/01/14 03:26:50;;;;;;;6.10;2.22;;;14.90;93.80;;;;;;2011597;28;20320;-71
2022/01/14 03:27:49;;;;;;;7.20;2.58;;;14.90;93.70;;;;;;2010423;28;20204;-71
2022/01/14 03:28:48;;;;;;;5.30;2.50;;;14.90;94.10;;;;;;2011797;28;20173;-70
2022/01/14 03:29:47;;;;;;;5.18;2.35;;;14.90;93.80;;;;;;2013136;28;20219;-69
2022/01/14 03:30:47;;;;;;;6.03;2.80;;;14.90;94.00;;;;;;2013705;28;20173;-70
2022/01/14 03:31:47;;;;;;;4.50;2.63;;;15.00;93.90;;;;;;2013199;28;20426;-69
2022/01/14 03:32:46;;;;;;;6.07;2.92;;;15.00;94.10;;;;;;2013512;28;20183;-70
2022/01/14 03:33:45;;;;;;;4.20;2.80;;;15.00;94.20;;;;;;2013827;28;20227;-70
2022/01/14 03:34:44;;;;;;;4.13;2.40;;;14.90;94.20;;;;;;2013966;28;20219;-69
2022/01/14 03:35:43;;;;;;;3.50;2.30;;;14.90;94.20;;;;;;2013695;28;20169;-69
2022/01/14 03:36:42;;;;;;;4.00;2.10;;;14.90;94.10;;;;;;2012672;28;20698;-69
2022/01/14 03:37:41;;;;;;;5.60;2.85;;;15.00;94.20;;;;;;2013567;28;20204;-69
2022/01/14 03:38:40;;;;;;;9.45;3.20;;;14.90;94.00;;;;;;2013695;28;20173;-70
2022/01/14 03:39:39;;;;;;;6.10;2.47;;;14.90;94.00;;;;;;2013738;28;20181;-70
2022/01/14 03:40:37;;;;;;;7.37;3.00;;;15.00;94.20;;;;;;2014032;28;20231;-69
2022/01/14 03:41:36;;;;;;;4.47;2.60;;;14.90;94.20;;;;;;2013792;28;20204;-70
2022/01/14 03:42:35;;;;;;;5.80;2.63;;;15.00;94.20;;;;;;2013805;28;20403;-70
2022/01/14 03:43:35;;;;;;;3.90;2.40;;;14.90;94.10;;;;;;2014030;28;20177;-69
2022/01/14 03:44:34;;;;;;;6.65;2.80;;;14.90;94.10;;;;;;2013745;28;20185;-70
2022/01/14 03:45:33;;;;;;;4.00;2.20;;;14.90;94.10;;;;;;2013643;28;20172;-70
2022/01/14 03:46:31;;;;;;;3.20;2.60;;;15.00;94.10;;;;;;2010603;28;20207;-71
2022/01/14 03:47:31;;;;;;;3.60;2.50;;;15.00;94.20;;;;;;2005363;28;20580;-70
2022/01/14 03:48:30;;;;;;;5.40;2.95;;;14.90;94.10;;;;;;2005545;28;20196;-71
2022/01/14 03:49:28;;;;;;;6.10;2.97;;;14.90;94.00;;;;;;2005401;28;20702;-71
2022/01/14 03:50:27;;;;;;;7.73;2.50;;;14.90;94.00;;;;;;2005464;28;20283;-71
2022/01/14 03:51:27;;;;;;;7.40;3.00;;;14.90;94.10;;;;;;2005426;28;20165;-71
2022/01/14 03:52:26;;;;;;;4.57;2.20;;;15.00;94.20;;;;;;2004809;28;20408;-70
2022/01/14 03:53:25;;;;;;;6.00;2.90;;;14.90;94.10;;;;;;2004946;28;20173;-71
2022/01/14 03:54:24;;;;;;;5.87;2.40;;;15.00;94.10;;;;;;2005448;28;20201;-71
2022/01/14 03:55:22;;;;;;;11.83;3.70;;;14.90;94.10;;;;;;2004755;28;20665;-71
2022/01/14 03:56:23;;;;;;;6.07;2.73;;;14.90;94.00;;;;;;2004892;28;20400;-71
2022/01/14 03:57:21;;;;;;;5.40;3.47;;;14.90;94.10;;;;;;2005419;28;20404;-72
2022/01/14 03:58:23;;;;;;;6.73;2.30;;;14.90;94.00;;;;;;2005451;28;20197;-71
2022/01/14 03:59:21;;;;;;;4.82;2.70;;;14.90;94.10;;;;;;2005318;28;20181;-71
2022/01/14 04:00:20;;;;;;;4.00;2.53;;;15.00;94.40;;;;;;2005553;28;20177;-71
2022/01/14 04:01:20;;;;;;;4.70;2.43;;;14.90;94.10;;;;;;2005498;28;20169;-71
2022/01/14 04:02:19;;;;;;;5.40;2.40;;;14.90;94.10;;;;;;2005488;28;20169;-71
2022/01/14 04:03:18;;;;;;;5.23;2.90;;;14.90;94.30;;;;;;2005417;28;20300;-70
2022/01/14 04:04:18;;;;;;;4.40;2.55;;;14.90;94.30;;;;;;2005567;28;20216;-71
2022/01/14 04:05:17;;;;;;;7.40;3.15;;;14.90;94.40;;;;;;2005480;28;20187;-71
2022/01/14 04:06:16;;;;;;;7.47;3.70;;;14.90;94.30;;;;;;2004529;28;20173;-71
2022/01/14 04:07:15;;;;;;;7.20;3.08;;;14.90;94.30;;;;;;2004768;28;20239;-71
2022/01/14 04:08:14;;;;;;;2.70;2.03;;;14.90;94.60;;;;;;2005308;28;20177;-71
2022/01/14 04:09:13;;;;;;;3.17;2.40;;;14.90;94.80;;;;;;2005231;28;20201;-71
2022/01/14 04:10:12;;;;;;;3.63;2.63;;;14.90;94.90;;;;;;2004720;28;20201;-71
2022/01/14 04:11:12;;;;;;;4.95;2.70;;;14.90;94.40;;;;;;1996757;28;20571;-71
2022/01/14 04:12:17;;;;;;;4.90;2.70;;;14.90;94.30;;;;;;2004489;28;20204;-71
2022/01/14 04:13:22;;;;;;;3.90;2.50;;;14.90;94.30;;;;;;2005413;28;20570;-71
2022/01/14 04:15:44;;;;;;;3.67;2.30;;;14.90;94.30;;;;;;2005425;28;20688;-71
2022/01/14 04:16:43;;;;;;;4.13;2.63;;;14.90;94.30;;;;;;2005312;28;20271;-71
2022/01/14 04:17:41;;;;;;;4.23;2.33;;;14.90;94.50;;;;;;2005315;28;20180;-71
2022/01/14 04:18:41;;;;;;;6.27;2.13;;;14.80;97.10;;;;;;2005417;28;20176;-71
2022/01/14 04:19:39;;;;;;;4.03;2.58;;;14.90;94.80;;;;;;2005276;28;20185;-71
2022/01/14 04:20:38;;;;;;;3.57;2.30;;;14.90;95.20;;;;;;2004515;28;20173;-71
2022/01/14 04:21:36;;;;;;;4.87;2.60;;;14.90;96.90;;;;;;2004814;28;20196;-70
2022/01/14 04:22:36;;;;;;;6.20;2.47;;;14.90;94.60;;;;;;2005086;28;20699;-71
2022/01/14 04:23:35;;;;;;;6.63;3.15;;;14.90;94.70;;;;;;2005037;28;20177;-71
2022/01/14 04:24:33;;;;;;;3.67;2.70;;;14.90;94.90;;;;;;2005180;28;20181;-71
2022/01/14 04:25:34;;;;;;;3.53;2.60;;;14.90;94.50;;;;;;2004469;28;20423;-71
2022/01/14 04:26:33;;;;;;;4.10;2.65;;;;;;;;;;2004497;28;20543;-70
2022/01/14 04:27:32;;;;;;;5.50;2.73;;;14.90;96.50;;;;;;2005106;28;20231;-71
2022/01/14 04:28:35;;;;;;;7.20;2.63;;;14.90;95.20;;;;;;2004396;28;20569;-71
2022/01/14 04:29:34;;;;;;;4.65;2.60;;;;;;;;;;2004638;28;20189;-70
2022/01/14 04:30:34;;;;;;;4.65;2.20;;;;;;;;;;2005153;28;20176;-71
2022/01/14 04:31:33;;;;;;;3.70;2.95;;;;;;;;;;2005051;28;20169;-71
2022/01/14 04:32:34;;;;;;;4.77;3.10;;;;;;;;;;2005056;28;20169;-71
2022/01/14 04:33:34;;;;;;;4.93;2.55;;;14.90;96.90;;;;;;2004316;28;20408;-71
2022/01/14 04:34:32;;;;;;;5.00;3.95;;;14.90;94.90;;;;;;2004389;28;20181;-71
2022/01/14 04:35:32;;;;;;;6.47;3.20;;;14.90;95.20;;;;;;2005083;28;20582;-71
2022/01/14 04:36:31;;;;;;;7.45;2.60;;;14.90;96.20;;;;;;2004979;28;20189;-70
2022/01/14 04:37:29;;;;;;;4.27;2.67;;;14.90;96.10;;;;;;2005233;28;20204;-70
2022/01/14 04:38:29;;;;;;;6.57;3.10;;;;;;;;;;2005112;28;20276;-70
2022/01/14 04:39:29;;;;;;;5.28;2.50;;;14.80;98.60;;;;;;2004341;28;20280;-70
2022/01/14 04:40:28;;;;;;;4.07;2.22;;;14.90;96.30;;;;;;2004550;28;20188;-70
2022/01/14 04:41:26;;;;;;;6.50;2.92;;;14.90;95.70;;;;;;2005162;28;20196;-70
2022/01/14 04:42:26;;;;;;;5.40;2.87;;;14.90;95.70;;;;;;2004977;28;20598;-70
2022/01/14 04:43:25;;;;;;;4.75;2.60;;;15.00;95.70;;;;;;2012191;28;20184;-71
2022/01/14 04:44:25;;;;;;;3.70;2.63;;;14.90;95.60;;;;;;2004401;28;20177;-71
2022/01/14 04:46:48;;;;;;;4.47;2.67;;;14.90;95.40;;;;;;2004533;28;20193;-71
2022/01/14 04:47:46;;;;;;;6.25;3.33;;;14.80;95.30;;;;;;2005092;28;20188;-71
2022/01/14 04:48:45;;;;;;;4.60;2.77;;;14.80;95.30;;;;;;2005000;28;20669;-71
2022/01/14 04:49:44;;;;;;;3.67;2.70;;;14.90;95.30;;;;;;2004978;28;20204;-71
2022/01/14 04:50:43;;;;;;;4.33;2.60;;;14.90;95.20;;;;;;2012329;28;20168;-71
2022/01/14 04:51:42;;;;;;;4.60;3.25;;;14.90;95.30;;;;;;2012531;28;20542;-70
2022/01/14 04:52:43;;;;;;;3.50;2.70;;;14.90;95.30;;;;;;2005280;28;20538;-71
2022/01/14 04:53:44;;;;;;;4.60;2.70;;;14.90;95.40;;;;;;2005034;28;20166;-71
2022/01/14 04:54:42;;;;;;;2.83;2.55;;;14.90;95.30;;;;;;2004853;28;20201;-72
2022/01/14 04:55:41;;;;;;;4.50;2.60;;;14.90;95.20;;;;;;2005111;28;20475;-71
2022/01/14 04:56:39;;;;;;;7.30;2.73;;;14.90;95.30;;;;;;2012024;28;20196;-71
2022/01/14 04:57:39;;;;;;;3.10;2.50;;;14.90;95.20;;;;;;2011942;28;20172;-71
2022/01/14 04:58:38;;;;;;;4.43;2.95;;;14.90;95.20;;;;;;2004653;28;20220;-71
2022/01/14 04:59:37;;;;;;;6.50;2.43;;;14.90;95.10;;;;;;2004305;28;20212;-71
2022/01/14 05:00:38;;;;;;;1.90;1.77;;;14.90;95.10;;;;;;2004722;28;20173;-72
2022/01/14 05:01:37;;;;;;;6.13;2.95;;;14.90;95.00;;;;;;2004910;28;20169;-72
2022/01/14 05:02:37;;;;;;;6.33;2.57;;;14.90;95.00;;;;;;2005102;28;20247;-72
2022/01/14 05:03:35;;;;;;;3.72;2.30;;;14.90;94.90;;;;;;2004609;28;20539;-72
2022/01/14 05:04:36;;;;;;;10.10;2.90;;;14.90;94.90;;;;;;2004645;28;20192;-72
2022/01/14 05:05:38;;;;;;;5.50;4.03;;;14.90;94.90;;;;;;2004616;28;20172;-72
2022/01/14 05:06:38;;;;;;;4.80;2.90;;;14.90;94.80;;;;;;2004610;28;20546;-72
2022/01/14 05:07:38;;;;;;;3.97;2.50;;;14.90;94.90;;;;;;2004569;28;20169;-73
2022/01/14 05:08:39;;;;;;;6.07;2.97;;;14.90;94.90;;;;;;2004614;28;20656;-72
2022/01/14 05:09:42;;;;;;;3.63;2.65;;;14.90;94.80;;;;;;2004615;28;20193;-72
2022/01/14 05:11:58;;;;;;;3.10;2.30;;;14.90;94.70;;;;;;2004749;28;20181;-72
2022/01/14 05:12:57;;;;;;;3.60;2.10;;;14.90;94.80;;;;;;2004858;28;20605;-72
2022/01/14 05:13:55;;;;;;;3.45;2.45;;;14.90;94.80;;;;;;2005148;28;20174;-72
2022/01/14 05:14:54;;;;;;;3.73;2.40;;;14.90;94.80;;;;;;2004693;28;20515;-71
2022/01/14 05:15:53;;;;;;;4.23;2.37;;;14.90;94.90;;;;;;2004743;28;20575;-72
2022/01/14 05:16:52;;;;;;;6.03;2.10;;;14.90;94.70;;;;;;2004769;28;20595;-72
2022/01/14 05:17:50;;;;;;;6.97;2.53;;;14.90;94.80;;;;;;2004848;28;20200;-72
2022/01/14 05:18:49;;;;;;;5.83;2.50;;;14.80;94.80;;;;;;2005123;28;20184;-71
2022/01/14 05:19:48;;;;;;;4.20;2.90;;;14.90;94.80;;;;;;2005249;28;20176;-72
2022/01/14 05:20:46;;;;;;;3.20;2.07;;;14.90;94.80;;;;;;2005025;28;20177;-71
2022/01/14 05:21:45;;;;;;;4.10;2.33;;;14.90;94.80;;;;;;2005276;28;20628;-71
2022/01/14 05:22:44;;;;;;;6.57;3.03;;;14.90;94.80;;;;;;2005123;28;20177;-72
2022/01/14 05:23:43;;;;;;;2.47;2.13;;;14.90;94.80;;;;;;2005268;28;20212;-72
2022/01/14 05:24:43;;;;;;;4.97;2.47;;;14.90;94.80;;;;;;2005352;28;20183;-72
2022/01/14 05:25:41;;;;;;;4.22;2.70;;;14.90;94.90;;;;;;2005357;28;20184;-72
2022/01/14 05:26:40;;;;;;;3.93;2.00;;;14.90;94.90;;;;;;2004714;28;20570;-72
2022/01/14 05:27:38;;;;;;;3.77;2.40;;;14.90;94.90;;;;;;2004765;28;20180;-72
2022/01/14 05:28:37;;;;;;;4.23;2.50;;;14.90;95.20;;;;;;2004793;28;20169;-73
2022/01/14 05:29:36;;;;;;;3.60;2.33;;;14.90;94.80;;;;;;2004655;28;20197;-72
2022/01/14 05:30:34;;;;;;;4.63;2.57;;;14.90;94.90;;;;;;2004833;28;20177;-72
2022/01/14 05:31:52;;;;;;;3.47;2.27;;;14.90;95.00;;;;;;2004936;28;20419;-72
2022/01/14 05:32:53;;;;;;;4.50;2.35;;;14.90;94.90;;;;;;2004784;28;20153;-72
2022/01/14 05:33:52;;;;;;;4.75;2.20;;;15.00;94.90;;;;;;2003972;28;20184;-72
2022/01/14 05:34:50;;;;;;;5.40;2.70;;;14.90;94.80;;;;;;1996178;28;20181;-72
2022/01/14 05:35:49;;;;;;;6.50;3.10;;;14.90;94.90;;;;;;2003531;28;20180;-72
2022/01/14 05:36:47;;;;;;;6.07;2.77;;;14.90;94.90;;;;;;2004584;28;20680;-73
2022/01/14 05:37:46;;;;;;;5.27;2.77;;;14.90;94.90;;;;;;2004708;28;20169;-72
2022/01/14 05:38:45;;;;;;;4.20;2.10;;;14.90;94.80;;;;;;2004687;28;20180;-72
2022/01/14 05:39:43;;;;;;;5.97;2.90;;;15.00;95.00;;;;;;2004659;28;20520;-72